Terminal Aerodrome Forecast
Issued by NWS Shreveport, LA

Home | Current Version | Previous Version | Text Only | Print | Product List | Glossary On
Versions: 1 2 3 4 5 6 7 8 9 10 11 12 13 14
000
FTUS44 KSHV 291700
TAFTYR
TAF
KTYR 291740Z 2918/3018 30008KT P6SM SKC
     FM291900 36011G20KT P6SM SKC
     FM300000 01008KT P6SM BKN250
     FM301200 04006KT P6SM SCT250
     FM301500 07009KT P6SM SCT250=

USA.gov is the U.S. government's official web portal to all federal, state and local government web resources and services.